Terminal Aerodrome Forecast
Issued by NWS

Home | Current Version | Previous Version | Text Only | Print | Product List | Glossary On
Versions: 1 2 3 4 5 6 7 8 9 10 11 12 13 14 15 16
000
FTAK31 PAJN 261700
TAFAWG
TAF
PAWG 261737Z 2618/2718 VRB04KT P6SM FEW005 SCT030 OVC050
     FM262100 VRB05KT P6SM FEW015 BKN060
     FM270400 10004KT P6SM VCFG FEW010 BKN100
     FM271500 10005KT P6SM SCT100
      AMD LTD TO CLD VIS AND WIND 2706/2715=

USA.gov is the U.S. government's official web portal to all federal, state and local government web resources and services.